PWSweather.com
Personal Weather Stations
Station Observations
SHAHALMS1
Eftra, Falkenberg, HA

EftraFalkenberg, HA

Lat: 56.85, Lon: 12.65

Elevation: 140

Station Type:

http://hem.passagen.se/risarp101

High Low Average
Temperature 51.8°F11.0°C 34.5°F1.4°C 43.2°F6.2°C
Dew Point 32.7°F0.4°C 16.7°F-8.5°C 26.9°F-2.8°C
Winds 11.6 mph 18.7 kmh Calm Calm 5.0 mph NE8.0 kmh NE
Wind Gusts 21.8 mph35.1 kmh -- 11.0 mph17.7 kmh
Humidity 70% 44% 53%
Pressure 30.09 in1019.0 mb 29.92 in1013.2 mb -
Precipitation 0.00 in0.0 mm - -
Hour Temp Dew Point Humidity Winds Wind Gusts Pressure Precip Precip Rate Daily Precip Total
12:00 AM 41.0°F5.0°C 25.2°F-3.8°C 53% 6.8 mph ENE10.9 kmh ENE 13.6 mph21.9 kmh 29.92 in1013.2 mb 0.00 in0.0 mm 0.00 in0.0 mm 0.00 in0.0 mm
12:18 AM 40.6°F4.8°C 24.8°F-4.0°C 53% 6.2 mph ENE10.0 kmh ENE 12.5 mph20.1 kmh 29.92 in1013.2 mb 0.00 in0.0 mm 0.00 in0.0 mm 0.00 in0.0 mm
12:45 AM 39.7°F4.3°C 24.0°F-4.4°C 53% 1.5 mph NE2.4 kmh NE 6.1 mph9.8 kmh 29.92 in1013.2 mb 0.00 in0.0 mm 0.00 in0.0 mm 0.00 in0.0 mm
01:00 AM 39.2°F4.0°C 23.5°F-4.7°C 53% 1.3 mph NE2.1 kmh NE 6.4 mph10.3 kmh 29.92 in1013.2 mb 0.00 in0.0 mm 0.00 in0.0 mm 0.00 in0.0 mm
01:15 AM 38.5°F3.6°C 23.3°F-4.8°C 54% 0.4 mph NE0.6 kmh NE 5.4 mph8.7 kmh 29.95 in1014.2 mb 0.00 in0.0 mm 0.00 in0.0 mm 0.00 in0.0 mm
01:30 AM 38.1°F3.4°C 22.9°F-5.1°C 54% 0.5 mph ENE0.8 kmh ENE 6.8 mph10.9 kmh 29.92 in1013.2 mb 0.00 in0.0 mm 0.00 in0.0 mm 0.00 in0.0 mm
01:45 AM 37.9°F3.3°C 23.6°F-4.7°C 56% 4.3 mph N6.9 kmh N 12.2 mph19.6 kmh 29.92 in1013.2 mb 0.00 in0.0 mm 0.00 in0.0 mm 0.00 in0.0 mm
02:00 AM 38.1°F3.4°C 24.2°F-4.3°C 57% 4.2 mph N6.8 kmh N 9.7 mph15.6 kmh 29.95 in1014.2 mb 0.00 in0.0 mm 0.00 in0.0 mm 0.00 in0.0 mm
02:15 AM 37.8°F3.2°C 23.9°F-4.5°C 57% 3.0 mph N4.8 kmh N 8.6 mph13.8 kmh 29.95 in1014.2 mb 0.00 in0.0 mm 0.00 in0.0 mm 0.00 in0.0 mm
02:30 AM 37.2°F2.9°C 23.8°F-4.6°C 58% 4.0 mph N6.4 kmh N 10.4 mph16.7 kmh 29.95 in1014.2 mb 0.00 in0.0 mm 0.00 in0.0 mm 0.00 in0.0 mm
02:45 AM 36.7°F2.6°C 23.7°F-4.6°C 59% 1.6 mph NNE2.6 kmh NNE 8.6 mph13.8 kmh 29.95 in1014.2 mb 0.00 in0.0 mm 0.00 in0.0 mm 0.00 in0.0 mm
03:00 AM 36.3°F2.4°C 23.3°F-4.8°C 59% 1.0 mph NE1.6 kmh NE 5.0 mph8.0 kmh 29.95 in1014.2 mb 0.00 in0.0 mm 0.00 in0.0 mm 0.00 in0.0 mm
03:15 AM 35.8°F2.1°C 22.8°F-5.1°C 59% 0.8 mph NE1.3 kmh NE 4.7 mph7.6 kmh 29.95 in1014.2 mb 0.00 in0.0 mm 0.00 in0.0 mm 0.00 in0.0 mm
03:30 AM 35.2°F1.8°C 22.7°F-5.2°C 60% Calm Calm -- 29.95 in1014.2 mb 0.00 in0.0 mm 0.00 in0.0 mm 0.00 in0.0 mm
03:45 AM 34.9°F1.6°C 22.8°F-5.1°C 61% 0.6 mph NE1.0 kmh NE 7.5 mph12.1 kmh 29.95 in1014.2 mb 0.00 in0.0 mm 0.00 in0.0 mm 0.00 in0.0 mm
04:00 AM 35.2°F1.8°C 24.3°F-4.3°C 64% 4.4 mph NNE7.1 kmh NNE 9.7 mph15.6 kmh 29.95 in1014.2 mb 0.00 in0.0 mm 0.00 in0.0 mm 0.00 in0.0 mm
04:15 AM 35.1°F1.7°C 24.1°F-4.4°C 64% 4.3 mph NNE6.9 kmh NNE 7.5 mph12.1 kmh 29.98 in1015.2 mb 0.00 in0.0 mm 0.00 in0.0 mm 0.00 in0.0 mm
04:30 AM 34.9°F1.6°C 23.9°F-4.5°C 64% 3.0 mph NNE4.8 kmh NNE 6.8 mph10.9 kmh 29.95 in1014.2 mb 0.00 in0.0 mm 0.00 in0.0 mm 0.00 in0.0 mm
04:45 AM 34.7°F1.5°C 24.1°F-4.4°C 65% 1.5 mph N2.4 kmh N 7.9 mph12.7 kmh 29.95 in1014.2 mb 0.00 in0.0 mm 0.00 in0.0 mm 0.00 in0.0 mm
05:00 AM 34.7°F1.5°C 24.9°F-3.9°C 67% 2.0 mph NNE3.2 kmh NNE 7.9 mph12.7 kmh 29.95 in1014.2 mb 0.00 in0.0 mm 0.00 in0.0 mm 0.00 in0.0 mm
05:15 AM 34.5°F1.4°C 24.7°F-4.1°C 67% 3.1 mph NNE5.0 kmh NNE 8.9 mph14.3 kmh 29.98 in1015.2 mb 0.00 in0.0 mm 0.00 in0.0 mm 0.00 in0.0 mm
05:30 AM 34.5°F1.4°C 25.0°F-3.9°C 68% 3.4 mph NE5.5 kmh NE 6.8 mph10.9 kmh 29.98 in1015.2 mb 0.00 in0.0 mm 0.00 in0.0 mm 0.00 in0.0 mm
05:45 AM 35.4°F1.9°C 26.6°F-3.0°C 70% 3.9 mph NNE6.3 kmh NNE 8.6 mph13.8 kmh 29.98 in1015.2 mb 0.00 in0.0 mm 0.00 in0.0 mm 0.00 in0.0 mm
06:00 AM 36.1°F2.3°C 26.9°F-2.8°C 69% 2.4 mph NE3.9 kmh NE 7.9 mph12.7 kmh 29.98 in1015.2 mb 0.00 in0.0 mm 0.00 in0.0 mm 0.00 in0.0 mm
06:15 AM 36.5°F2.5°C 27.3°F-2.6°C 69% 4.3 mph NNE6.9 kmh NNE 8.9 mph14.3 kmh 30.01 in1016.3 mb 0.00 in0.0 mm 0.00 in0.0 mm 0.00 in0.0 mm
06:30 AM 37.4°F3.0°C 28.2°F-2.1°C 69% 3.9 mph NNE6.3 kmh NNE 7.5 mph12.1 kmh 30.01 in1016.3 mb 0.00 in0.0 mm 0.00 in0.0 mm 0.00 in0.0 mm
06:45 AM 38.5°F3.6°C 28.8°F-1.8°C 68% 4.9 mph NNE7.9 kmh NNE 10.7 mph17.2 kmh 30.01 in1016.3 mb 0.00 in0.0 mm 0.00 in0.0 mm 0.00 in0.0 mm
07:00 AM 40.1°F4.5°C 29.3°F-1.5°C 65% 7.4 mph NNE11.9 kmh NNE 12.5 mph20.1 kmh 30.01 in1016.3 mb 0.00 in0.0 mm 0.00 in0.0 mm 0.00 in0.0 mm
07:15 AM 41.7°F5.4°C 30.0°F-1.1°C 63% 7.4 mph NNE11.9 kmh NNE 15.4 mph24.8 kmh 30.01 in1016.3 mb 0.00 in0.0 mm 0.00 in0.0 mm 0.00 in0.0 mm
07:30 AM 42.8°F6.0°C 30.7°F-0.7°C 62% 6.7 mph NNE10.8 kmh NNE 11.8 mph19.0 kmh 30.01 in1016.3 mb 0.00 in0.0 mm 0.00 in0.0 mm 0.00 in0.0 mm
07:45 AM 43.7°F6.5°C 30.7°F-0.7°C 60% 8.1 mph NNE13.0 kmh NNE 14.0 mph22.5 kmh 30.01 in1016.3 mb 0.00 in0.0 mm 0.00 in0.0 mm 0.00 in0.0 mm
08:00 AM 44.6°F7.0°C 30.7°F-0.7°C 58% 8.3 mph NNE13.4 kmh NNE 16.1 mph25.9 kmh 30.01 in1016.3 mb 0.00 in0.0 mm 0.00 in0.0 mm 0.00 in0.0 mm
08:16 AM 44.4°F6.9°C 30.1°F-1.1°C 57% 8.0 mph NNE12.9 kmh NNE 12.5 mph20.1 kmh 29.98 in1015.2 mb 0.00 in0.0 mm 0.00 in0.0 mm 0.00 in0.0 mm
08:25 AM 44.4°F6.9°C 30.1°F-1.1°C 57% 9.9 mph N15.9 kmh N 12.2 mph19.6 kmh 29.98 in1015.2 mb 0.00 in0.0 mm 0.00 in0.0 mm 0.00 in0.0 mm
08:26 AM 44.4°F6.9°C 30.1°F-1.1°C 57% 8.1 mph N13.0 kmh N 12.2 mph19.6 kmh 29.98 in1015.2 mb 0.00 in0.0 mm 0.00 in0.0 mm 0.00 in0.0 mm
08:27 AM 44.4°F6.9°C 30.1°F-1.1°C 57% 7.9 mph N12.7 kmh N 12.2 mph19.6 kmh 29.98 in1015.2 mb 0.00 in0.0 mm 0.00 in0.0 mm 0.00 in0.0 mm
08:28 AM 44.4°F6.9°C 30.1°F-1.1°C 57% 7.6 mph N12.2 kmh N 12.2 mph19.6 kmh 29.98 in1015.2 mb 0.00 in0.0 mm 0.00 in0.0 mm 0.00 in0.0 mm
08:39 AM 44.2°F6.8°C 29.5°F-1.4°C 56% 8.3 mph N13.4 kmh N 11.5 mph18.5 kmh 30.01 in1016.3 mb 0.00 in0.0 mm 0.00 in0.0 mm 0.00 in0.0 mm
08:40 AM 44.2°F6.8°C 29.5°F-1.4°C 56% 10.9 mph N17.5 kmh N 15.4 mph24.8 kmh 30.01 in1016.3 mb 0.00 in0.0 mm 0.00 in0.0 mm 0.00 in0.0 mm
08:41 AM 44.2°F6.8°C 29.5°F-1.4°C 56% 11.0 mph N17.7 kmh N 15.4 mph24.8 kmh 30.01 in1016.3 mb 0.00 in0.0 mm 0.00 in0.0 mm 0.00 in0.0 mm
08:42 AM 44.2°F6.8°C 29.1°F-1.6°C 55% 10.2 mph N16.4 kmh N 15.4 mph24.8 kmh 30.01 in1016.3 mb 0.00 in0.0 mm 0.00 in0.0 mm 0.00 in0.0 mm
08:43 AM 44.2°F6.8°C 29.1°F-1.6°C 55% 10.2 mph NNE16.4 kmh NNE 15.4 mph24.8 kmh 30.01 in1016.3 mb 0.00 in0.0 mm 0.00 in0.0 mm 0.00 in0.0 mm
08:44 AM 44.4°F6.9°C 29.7°F-1.3°C 56% 10.4 mph N16.7 kmh N 15.4 mph24.8 kmh 30.01 in1016.3 mb 0.00 in0.0 mm 0.00 in0.0 mm 0.00 in0.0 mm
08:45 AM 45.0°F7.2°C 29.8°F-1.2°C 55% 9.3 mph NNE15.0 kmh NNE 20.8 mph33.5 kmh 29.98 in1015.2 mb 0.00 in0.0 mm 0.00 in0.0 mm 0.00 in0.0 mm
09:00 AM 45.9°F7.7°C 30.1°F-1.1°C 54% 8.6 mph NNE13.8 kmh NNE 15.7 mph25.3 kmh 29.98 in1015.2 mb 0.00 in0.0 mm 0.00 in0.0 mm 0.00 in0.0 mm
09:15 AM 45.7°F7.6°C 29.0°F-1.7°C 52% 8.3 mph NNE13.4 kmh NNE 20.8 mph33.5 kmh 30.01 in1016.3 mb 0.00 in0.0 mm 0.00 in0.0 mm 0.00 in0.0 mm
09:30 AM 46.0°F7.8°C 29.4°F-1.4°C 52% 8.4 mph NNE13.5 kmh NNE 16.8 mph27.0 kmh 30.01 in1016.3 mb 0.00 in0.0 mm 0.00 in0.0 mm 0.00 in0.0 mm
09:45 AM 46.6°F8.1°C 28.9°F-1.7°C 50% 11.6 mph N18.7 kmh N 21.8 mph35.1 kmh 30.01 in1016.3 mb 0.00 in0.0 mm 0.00 in0.0 mm 0.00 in0.0 mm
10:00 AM 46.9°F8.3°C 29.2°F-1.6°C 50% 10.9 mph N17.5 kmh N 20.8 mph33.5 kmh 30.01 in1016.3 mb 0.00 in0.0 mm 0.00 in0.0 mm 0.00 in0.0 mm
10:15 AM 47.3°F8.5°C 29.1°F-1.6°C 49% 8.7 mph NE14.0 kmh NE 19.0 mph30.6 kmh 30.01 in1016.3 mb 0.00 in0.0 mm 0.00 in0.0 mm 0.00 in0.0 mm
10:30 AM 46.2°F7.9°C 28.1°F-2.2°C 49% 8.7 mph NE14.0 kmh NE 14.0 mph22.5 kmh 30.01 in1016.3 mb 0.00 in0.0 mm 0.00 in0.0 mm 0.00 in0.0 mm
10:45 AM 48.2°F9.0°C 29.9°F-1.2°C 49% 7.4 mph ENE11.9 kmh ENE 14.7 mph23.7 kmh 30.01 in1016.3 mb 0.00 in0.0 mm 0.00 in0.0 mm 0.00 in0.0 mm
11:00 AM 49.1°F9.5°C 30.7°F-0.7°C 49% 7.5 mph NE12.1 kmh NE 15.4 mph24.8 kmh 30.01 in1016.3 mb 0.00 in0.0 mm 0.00 in0.0 mm 0.00 in0.0 mm
11:15 AM 49.1°F9.5°C 29.7°F-1.3°C 47% 10.3 mph N16.6 kmh N 21.1 mph34.0 kmh 30.01 in1016.3 mb 0.00 in0.0 mm 0.00 in0.0 mm 0.00 in0.0 mm
11:30 AM 48.6°F9.2°C 29.7°F-1.3°C 48% 8.1 mph N13.0 kmh N 15.7 mph25.3 kmh 30.04 in1017.3 mb 0.00 in0.0 mm 0.00 in0.0 mm 0.00 in0.0 mm
11:45 AM 48.6°F9.2°C 29.7°F-1.3°C 48% 6.1 mph NNE9.8 kmh NNE 12.9 mph20.8 kmh 30.04 in1017.3 mb 0.00 in0.0 mm 0.00 in0.0 mm 0.00 in0.0 mm
12:00 PM 48.7°F9.3°C 29.9°F-1.2°C 48% 6.6 mph NE10.6 kmh NE 12.2 mph19.6 kmh 30.04 in1017.3 mb 0.00 in0.0 mm 0.00 in0.0 mm 0.00 in0.0 mm
12:15 PM 48.9°F9.4°C 30.1°F-1.1°C 48% 6.5 mph ENE10.5 kmh ENE 12.9 mph20.8 kmh 30.04 in1017.3 mb 0.00 in0.0 mm 0.00 in0.0 mm 0.00 in0.0 mm
12:30 PM 49.5°F9.7°C 30.0°F-1.1°C 47% 7.0 mph E11.3 kmh E 14.0 mph22.5 kmh 30.04 in1017.3 mb 0.00 in0.0 mm 0.00 in0.0 mm 0.00 in0.0 mm
12:45 PM 50.4°F10.2°C 30.9°F-0.6°C 47% 6.4 mph ENE10.3 kmh ENE 10.4 mph16.7 kmh 30.04 in1017.3 mb 0.00 in0.0 mm 0.00 in0.0 mm 0.00 in0.0 mm
01:00 PM 51.8°F11.0°C 32.7°F0.4°C 48% 4.9 mph N7.9 kmh N 11.5 mph18.5 kmh 30.04 in1017.3 mb 0.00 in0.0 mm 0.00 in0.0 mm 0.00 in0.0 mm
01:15 PM 50.4°F10.2°C 30.3°F-0.9°C 46% 5.5 mph NE8.9 kmh NE 11.8 mph19.0 kmh 30.04 in1017.3 mb 0.00 in0.0 mm 0.00 in0.0 mm 0.00 in0.0 mm
01:30 PM 49.8°F9.9°C 29.8°F-1.2°C 46% 9.5 mph N15.3 kmh N 17.2 mph27.7 kmh 30.04 in1017.3 mb 0.00 in0.0 mm 0.00 in0.0 mm 0.00 in0.0 mm
01:45 PM 50.0°F10.0°C 30.5°F-0.8°C 47% 7.1 mph N11.4 kmh N 14.0 mph22.5 kmh 30.04 in1017.3 mb 0.00 in0.0 mm 0.00 in0.0 mm 0.00 in0.0 mm
02:00 PM 50.4°F10.2°C 30.3°F-0.9°C 46% 6.4 mph NNE10.3 kmh NNE 12.2 mph19.6 kmh 30.04 in1017.3 mb 0.00 in0.0 mm 0.00 in0.0 mm 0.00 in0.0 mm
02:15 PM 50.5°F10.3°C 31.0°F-0.6°C 47% 4.4 mph N7.1 kmh N 12.9 mph20.8 kmh 30.04 in1017.3 mb 0.00 in0.0 mm 0.00 in0.0 mm 0.00 in0.0 mm
02:30 PM 50.4°F10.2°C 30.9°F-0.6°C 47% 6.3 mph N10.1 kmh N 13.6 mph21.9 kmh 30.04 in1017.3 mb 0.00 in0.0 mm 0.00 in0.0 mm 0.00 in0.0 mm
02:45 PM 50.4°F10.2°C 30.3°F-0.9°C 46% 3.3 mph NE5.3 kmh NE 9.3 mph15.0 kmh 30.04 in1017.3 mb 0.00 in0.0 mm 0.00 in0.0 mm 0.00 in0.0 mm
03:00 PM 50.5°F10.3°C 30.5°F-0.8°C 46% 2.5 mph NNE4.0 kmh NNE 8.9 mph14.3 kmh 30.04 in1017.3 mb 0.00 in0.0 mm 0.00 in0.0 mm 0.00 in0.0 mm
03:15 PM 51.1°F10.6°C 30.5°F-0.8°C 45% 6.6 mph N10.6 kmh N 15.7 mph25.3 kmh 30.01 in1016.3 mb 0.00 in0.0 mm 0.00 in0.0 mm 0.00 in0.0 mm
03:30 PM 50.9°F10.5°C 30.3°F-0.9°C 45% 4.4 mph N7.1 kmh N 8.9 mph14.3 kmh 30.01 in1016.3 mb 0.00 in0.0 mm 0.00 in0.0 mm 0.00 in0.0 mm
03:45 PM 51.6°F10.9°C 30.4°F-0.9°C 44% 3.0 mph N4.8 kmh N 12.9 mph20.8 kmh 30.01 in1016.3 mb 0.00 in0.0 mm 0.00 in0.0 mm 0.00 in0.0 mm
04:00 PM 51.1°F10.6°C 29.9°F-1.2°C 44% 6.1 mph NNW9.8 kmh NNW 11.8 mph19.0 kmh 30.01 in1016.3 mb 0.00 in0.0 mm 0.00 in0.0 mm 0.00 in0.0 mm
04:17 PM 50.9°F10.5°C 29.7°F-1.3°C 44% 6.2 mph N10.0 kmh N 12.9 mph20.8 kmh 30.01 in1016.3 mb 0.00 in0.0 mm 0.00 in0.0 mm 0.00 in0.0 mm
04:32 PM 51.1°F10.6°C 29.9°F-1.2°C 44% 5.9 mph N9.5 kmh N 10.0 mph16.1 kmh 30.01 in1016.3 mb 0.00 in0.0 mm 0.00 in0.0 mm 0.00 in0.0 mm
04:45 PM 50.7°F10.4°C 30.1°F-1.1°C 45% 6.5 mph NNW10.5 kmh NNW 12.9 mph20.8 kmh 30.01 in1016.3 mb 0.00 in0.0 mm 0.00 in0.0 mm 0.00 in0.0 mm
05:00 PM 50.0°F10.0°C 29.5°F-1.4°C 45% 7.6 mph N12.2 kmh N 12.9 mph20.8 kmh 30.01 in1016.3 mb 0.00 in0.0 mm 0.00 in0.0 mm 0.00 in0.0 mm
05:15 PM 50.2°F10.1°C 30.2°F-1.0°C 46% Calm Calm 2.5 mph4.0 kmh 30.01 in1016.3 mb 0.00 in0.0 mm 0.00 in0.0 mm 0.00 in0.0 mm
05:30 PM 49.3°F9.6°C 28.8°F-1.8°C 45% 3.9 mph NNE6.3 kmh NNE 10.4 mph16.7 kmh 30.01 in1016.3 mb 0.00 in0.0 mm 0.00 in0.0 mm 0.00 in0.0 mm
05:45 PM 48.4°F9.1°C 28.5°F-1.9°C 46% 1.5 mph N2.4 kmh N 6.8 mph10.9 kmh 30.01 in1016.3 mb 0.00 in0.0 mm 0.00 in0.0 mm 0.00 in0.0 mm
06:00 PM 47.8°F8.8°C 28.0°F-2.2°C 46% 7.0 mph N11.3 kmh N 12.5 mph20.1 kmh 30.01 in1016.3 mb 0.00 in0.0 mm 0.00 in0.0 mm 0.00 in0.0 mm
06:15 PM 47.1°F8.4°C 27.9°F-2.3°C 47% 6.7 mph N10.8 kmh N 11.1 mph17.9 kmh 30.04 in1017.3 mb 0.00 in0.0 mm 0.00 in0.0 mm 0.00 in0.0 mm
06:30 PM 46.2°F7.9°C 27.6°F-2.4°C 48% 5.8 mph N9.3 kmh N 12.9 mph20.8 kmh 30.01 in1016.3 mb 0.00 in0.0 mm 0.00 in0.0 mm 0.00 in0.0 mm
06:45 PM 45.5°F7.5°C 27.4°F-2.6°C 49% 6.2 mph N10.0 kmh N 10.4 mph16.7 kmh 30.04 in1017.3 mb 0.00 in0.0 mm 0.00 in0.0 mm 0.00 in0.0 mm
07:00 PM 44.6°F7.0°C 27.1°F-2.7°C 50% 4.6 mph N7.4 kmh N 9.3 mph15.0 kmh 30.04 in1017.3 mb 0.00 in0.0 mm 0.00 in0.0 mm 0.00 in0.0 mm
07:15 PM 44.2°F6.8°C 26.8°F-2.9°C 50% 5.4 mph N8.7 kmh N 11.8 mph19.0 kmh 30.04 in1017.3 mb 0.00 in0.0 mm 0.00 in0.0 mm 0.00 in0.0 mm
07:30 PM 43.3°F6.3°C 26.4°F-3.1°C 51% 1.2 mph N1.9 kmh N 9.3 mph15.0 kmh 30.04 in1017.3 mb 0.00 in0.0 mm 0.00 in0.0 mm 0.00 in0.0 mm
07:45 PM 43.2°F6.2°C 26.7°F-2.9°C 52% 7.2 mph N11.6 kmh N 12.9 mph20.8 kmh 30.07 in1018.3 mb 0.00 in0.0 mm 0.00 in0.0 mm 0.00 in0.0 mm
08:00 PM 42.8°F6.0°C 25.9°F-3.4°C 51% 8.0 mph N12.9 kmh N 15.0 mph24.1 kmh 30.09 in1019.0 mb 0.00 in0.0 mm 0.00 in0.0 mm 0.00 in0.0 mm
08:15 PM 42.1°F5.6°C 25.2°F-3.8°C 51% 5.2 mph N8.4 kmh N 9.7 mph15.6 kmh 30.07 in1018.3 mb 0.00 in0.0 mm 0.00 in0.0 mm 0.00 in0.0 mm
08:30 PM 41.5°F5.3°C 24.7°F-4.1°C 51% 6.6 mph N10.6 kmh N 14.0 mph22.5 kmh 30.04 in1017.3 mb 0.00 in0.0 mm 0.00 in0.0 mm 0.00 in0.0 mm
08:45 PM 40.8°F4.9°C 23.6°F-4.7°C 50% 5.9 mph N9.5 kmh N 12.9 mph20.8 kmh 30.04 in1017.3 mb 0.00 in0.0 mm 0.00 in0.0 mm 0.00 in0.0 mm
09:00 PM 39.9°F4.4°C 22.8°F-5.1°C 50% 0.9 mph NE1.4 kmh NE 7.9 mph12.7 kmh 30.07 in1018.3 mb 0.00 in0.0 mm 0.00 in0.0 mm 0.00 in0.0 mm
09:15 PM 39.4°F4.1°C 21.8°F-5.7°C 49% 3.0 mph NNE4.8 kmh NNE 7.5 mph12.1 kmh 30.04 in1017.3 mb 0.00 in0.0 mm 0.00 in0.0 mm 0.00 in0.0 mm
09:30 PM 38.7°F3.7°C 21.1°F-6.1°C 49% 0.2 mph NE0.3 kmh NE 4.7 mph7.6 kmh 30.04 in1017.3 mb 0.00 in0.0 mm 0.00 in0.0 mm 0.00 in0.0 mm
09:45 PM 37.9°F3.3°C 20.0°F-6.7°C 48% 0.1 mph NE0.2 kmh NE 3.6 mph5.8 kmh 30.07 in1018.3 mb 0.00 in0.0 mm 0.00 in0.0 mm 0.00 in0.0 mm
10:00 PM 37.6°F3.1°C 19.6°F-6.9°C 48% Calm Calm -- 30.07 in1018.3 mb 0.00 in0.0 mm 0.00 in0.0 mm 0.00 in0.0 mm
10:15 PM 37.2°F2.9°C 19.3°F-7.1°C 48% Calm Calm -- 30.07 in1018.3 mb 0.00 in0.0 mm 0.00 in0.0 mm 0.00 in0.0 mm
10:30 PM 36.9°F2.7°C 19.0°F-7.2°C 48% 0.3 mph NE0.5 kmh NE 4.3 mph6.9 kmh 30.04 in1017.3 mb 0.00 in0.0 mm 0.00 in0.0 mm 0.00 in0.0 mm
10:45 PM 36.7°F2.6°C 18.3°F-7.6°C 47% 0.6 mph NNE1.0 kmh NNE 4.7 mph7.6 kmh 30.07 in1018.3 mb 0.00 in0.0 mm 0.00 in0.0 mm 0.00 in0.0 mm
11:00 PM 36.3°F2.4°C 18.0°F-7.8°C 47% 0.6 mph N1.0 kmh N 6.1 mph9.8 kmh 30.07 in1018.3 mb 0.00 in0.0 mm 0.00 in0.0 mm 0.00 in0.0 mm
11:15 PM 35.8°F2.1°C 17.5°F-8.1°C 47% 0.7 mph N1.1 kmh N 6.4 mph10.3 kmh 30.07 in1018.3 mb 0.00 in0.0 mm 0.00 in0.0 mm 0.00 in0.0 mm
11:30 PM 35.4°F1.9°C 17.2°F-8.2°C 47% 1.8 mph N2.9 kmh N 6.4 mph10.3 kmh 30.07 in1018.3 mb 0.00 in0.0 mm 0.00 in0.0 mm 0.00 in0.0 mm
11:45 PM 34.9°F1.6°C 16.7°F-8.5°C 47% 1.0 mph N1.6 kmh N 5.4 mph8.7 kmh 30.07 in1018.3 mb 0.00 in0.0 mm 0.00 in0.0 mm 0.00 in0.0 mm